Breckenridge, Michigan
Current Conditions -  °F | °C
As of 11:15 PM on Sunday 25 Jan 2015 (Local Time) from KAMN Reporting Station
Light Snow Light Snow  
Wind Chill:   Ceiling: 2300
Heat Index: 15°   Visibility: 7mi
Dew Point: 10°   Wind: 8mph
Humidity: 80%   Direction: 30°NNE
Pressure: 30.05"   Gusts: NA
Location:  43.41°N, 84.48°W
Report Text: KAMN 260415Z AUTO 03007KT 7SM -SN OVC023 M09/M12 A3005 RMK AO2 T10921120
Loading
Personal Weather Stations






























Interactive Weather Map New forecast layout! Learn more

10-Day Weather Forecast

Advertisements
Track Severe Weather on mobile